createdAt,value
2019-05-02T00:00:22.362Z,3864
2019-05-02T00:01:23.095Z,3864
2019-05-02T00:02:28.551Z,3864
2019-05-02T00:03:30.757Z,3864
2019-05-02T00:04:31.514Z,3864
2019-05-02T00:05:33.270Z,3864
2019-05-02T00:06:37.890Z,3864
2019-05-02T00:07:44.776Z,3844
2019-05-02T00:08:45.555Z,3844
2019-05-02T00:09:48.262Z,3844
2019-05-02T00:10:51.075Z,3844
2019-05-02T00:11:58.453Z,3844
2019-05-02T00:12:59.790Z,3844
2019-05-02T00:14:00.504Z,3844
2019-05-02T00:15:01.806Z,3844
2019-05-02T00:16:04.258Z,3844
2019-05-02T00:17:04.981Z,3844
2019-05-02T00:18:05.803Z,3844
2019-05-02T00:19:09.026Z,3844
2019-05-02T00:20:15.877Z,3844
2019-05-02T00:21:16.630Z,3844
2019-05-02T00:22:18.489Z,3844
2019-05-02T00:23:22.917Z,3844
2019-05-02T00:24:33.828Z,3844
2019-05-02T00:25:41.631Z,3844
2019-05-02T00:26:42.337Z,3844
2019-05-02T00:27:43.067Z,3844
2019-05-02T00:28:47.890Z,3844
2019-05-02T00:29:53.705Z,3844
2019-05-02T00:31:00.833Z,3844
2019-05-02T00:32:01.575Z,3844
2019-05-02T00:33:02.308Z,3844
2019-05-02T00:34:03.111Z,3844
2019-05-02T00:35:03.879Z,3844
2019-05-02T00:36:04.606Z,3844
2019-05-02T00:37:05.401Z,3844
2019-05-02T00:38:06.178Z,3844
2019-05-02T00:39:09.465Z,3844
2019-05-02T00:40:20.038Z,3844
2019-05-02T00:41:28.279Z,3844
2019-05-02T00:42:28.995Z,3844
2019-05-02T00:43:34.289Z,3844
2019-05-02T00:44:37.065Z,3844
2019-05-02T00:45:37.836Z,3844
2019-05-02T00:46:38.613Z,3844
2019-05-02T00:47:42.143Z,3844
2019-05-02T00:48:54.013Z,3844
2019-05-02T00:50:06.130Z,3844
2019-05-02T00:51:13.230Z,3824
2019-05-02T00:52:13.990Z,3824
2019-05-02T00:53:14.737Z,3824
2019-05-02T00:54:19.043Z,3824
2019-05-02T00:55:28.759Z,3824
2019-05-02T00:56:40.104Z,3824
2019-05-02T00:57:45.903Z,3824
2019-05-02T00:58:46.624Z,3824
2019-05-02T00:59:47.338Z,3824
2019-05-02T01:00:48.562Z,3824
2019-05-02T01:01:55.446Z,3824
2019-05-02T01:03:05.545Z,3824
2019-05-02T01:04:06.300Z,3824
2019-05-02T01:05:07.060Z,3824
2019-05-02T01:06:13.567Z,3824
2019-05-02T01:07:20.218Z,3824
2019-05-02T01:08:30.892Z,3824
2019-05-02T01:09:37.463Z,3824
2019-05-02T01:10:38.208Z,3824
2019-05-02T01:11:39.032Z,3824
2019-05-02T01:12:43.919Z,3824
2019-05-02T01:13:50.205Z,3824
2019-05-02T01:14:58.246Z,3824
2019-05-02T01:15:58.974Z,3824
2019-05-02T01:16:59.788Z,3824
2019-05-02T01:18:01.023Z,3824
2019-05-02T01:19:12.054Z,3824
2019-05-02T01:20:22.117Z,3824
2019-05-02T01:21:33.916Z,3824
2019-05-02T01:22:40.652Z,3824
2019-05-02T01:23:41.437Z,3824
2019-05-02T01:24:42.202Z,3824
2019-05-02T01:25:47.185Z,3824
2019-05-02T01:26:53.636Z,3824
2019-05-02T01:27:54.434Z,3824
2019-05-02T01:28:55.691Z,3804
2019-05-02T01:29:56.530Z,3824
2019-05-02T01:31:06.618Z,3804
2019-05-02T01:32:07.311Z,3804
2019-05-02T01:33:08.089Z,3804
2019-05-02T01:34:12.974Z,3804
2019-05-02T01:35:19.850Z,3804
2019-05-02T01:36:20.616Z,3804
2019-05-02T01:37:21.942Z,3804
2019-05-02T01:38:26.184Z,3804
2019-05-02T01:39:37.789Z,3804
2019-05-02T01:40:48.033Z,3804
2019-05-02T01:41:55.353Z,3804
2019-05-02T01:43:00.419Z,3804
2019-05-02T01:44:01.619Z,3804
2019-05-02T01:45:02.462Z,3804
2019-05-02T01:46:11.579Z,3804
2019-05-02T01:47:12.351Z,3804
2019-05-02T01:48:13.106Z,3804
2019-05-02T01:49:16.789Z,3804
2019-05-02T01:50:23.631Z,3804
2019-05-02T01:51:24.378Z,3804
2019-05-02T01:52:25.158Z,3804
2019-05-02T01:53:29.117Z,3804
2019-05-02T01:54:36.368Z,3804
2019-05-02T01:55:41.349Z,3804
2019-05-02T01:56:42.104Z,3804
2019-05-02T01:57:44.629Z,3804
2019-05-02T01:58:46.683Z,3784
2019-05-02T01:59:47.425Z,3804
2019-05-02T02:00:48.227Z,3804
2019-05-02T02:01:53.073Z,3784
2019-05-02T02:03:04.102Z,3784
2019-05-02T02:04:10.968Z,3784
2019-05-02T02:05:11.706Z,3784
2019-05-02T02:06:12.492Z,3784
2019-05-02T02:07:14.925Z,3784
2019-05-02T02:08:21.718Z,3784
2019-05-02T02:09:22.506Z,3784
2019-05-02T02:10:23.224Z,3784
2019-05-02T02:11:28.231Z,3784
2019-05-02T02:12:36.257Z,3784
2019-05-02T02:13:37.972Z,3784
2019-05-02T02:14:38.788Z,3784
2019-05-02T02:15:39.535Z,3784
2019-05-02T02:16:40.543Z,3784
2019-05-02T02:17:41.365Z,3784
2019-05-02T02:18:42.117Z,3784
2019-05-02T02:19:42.858Z,3784
2019-05-02T02:20:45.088Z,3784
2019-05-02T02:21:50.836Z,3784
2019-05-02T02:22:51.535Z,3784
2019-05-02T02:23:52.272Z,3784
2019-05-02T02:24:55.854Z,3784
2019-05-02T02:26:06.681Z,3784
2019-05-02T02:27:14.390Z,3784
2019-05-02T02:28:15.166Z,3784
2019-05-02T02:29:16.015Z,3784
2019-05-02T02:30:17.479Z,3784
2019-05-02T02:31:27.161Z,3764
2019-05-02T02:32:28.683Z,3764
2019-05-02T02:33:29.506Z,3764
2019-05-02T02:34:32.261Z,3764
2019-05-02T02:35:33.271Z,3764
2019-05-02T02:36:34.597Z,3764
2019-05-02T02:37:35.761Z,3764
2019-05-02T02:38:36.510Z,3764
2019-05-02T02:39:37.303Z,3764
2019-05-02T02:40:38.126Z,3764
2019-05-02T02:41:38.903Z,3764
2019-05-02T02:42:39.722Z,3764
2019-05-02T02:43:40.465Z,3764
2019-05-02T02:44:41.856Z,3764
2019-05-02T02:45:42.867Z,3764
2019-05-02T02:46:43.614Z,3764
2019-05-02T02:47:44.402Z,3764
2019-05-02T02:48:45.168Z,3764
2019-05-02T02:49:45.941Z,3764
2019-05-02T02:50:46.707Z,3764
2019-05-02T02:51:47.449Z,3764
2019-05-02T02:52:48.233Z,3764
2019-05-02T02:53:48.973Z,3764
2019-05-02T02:54:49.741Z,3764
2019-05-02T02:56:00.728Z,3764
2019-05-02T02:57:04.757Z,3764
2019-05-02T02:58:06.570Z,3764
2019-05-02T02:59:07.482Z,3764
2019-05-02T03:00:10.899Z,3764
2019-05-02T03:01:12.114Z,3764
2019-05-02T03:02:12.867Z,3764
2019-05-02T03:03:13.750Z,3764
2019-05-02T03:04:14.504Z,3744
2019-05-02T03:05:18.466Z,3744
2019-05-02T03:06:28.399Z,3744
2019-05-02T03:07:29.156Z,3744
2019-05-02T03:08:29.974Z,3744
2019-05-02T03:09:30.767Z,3744
2019-05-02T03:10:31.597Z,3744
2019-05-02T03:11:32.326Z,3744
2019-05-02T03:12:36.079Z,3744
2019-05-02T03:13:52.213Z,3744
2019-05-02T03:15:06.819Z,3744
2019-05-02T03:16:09.234Z,3744
2019-05-02T03:17:10.200Z,3744
2019-05-02T03:18:10.963Z,3744
2019-05-02T03:19:14.517Z,3744
2019-05-02T03:20:23.938Z,3744
2019-05-02T03:21:24.726Z,3744
2019-05-02T03:22:25.485Z,3744
2019-05-02T03:23:26.244Z,3744
2019-05-02T03:24:26.974Z,3744
2019-05-02T03:25:48.602Z,3744
2019-05-02T03:26:55.060Z,3744
2019-05-02T03:27:59.260Z,3744
2019-05-02T03:29:00.706Z,3744
2019-05-02T03:30:01.821Z,3744
2019-05-02T03:31:20.837Z,3744
2019-05-02T03:32:34.852Z,3744
2019-05-02T03:33:51.152Z,3744
2019-05-02T03:35:00.579Z,3744
2019-05-02T03:36:01.296Z,3744
2019-05-02T03:37:09.856Z,3744
2019-05-02T03:38:14.812Z,3744
2019-05-02T03:39:17.377Z,3744
2019-05-02T03:40:18.394Z,3724
2019-05-02T03:41:20.507Z,3724
2019-05-02T03:42:24.395Z,3724
2019-05-02T03:43:27.498Z,3724
2019-05-02T03:44:28.606Z,3724
2019-05-02T03:45:31.976Z,3724
2019-05-02T03:46:43.740Z,3724
2019-05-02T03:47:46.441Z,3724
2019-05-02T03:48:47.386Z,3724
2019-05-02T03:49:49.310Z,3724
2019-05-02T03:50:53.145Z,3724
2019-05-02T03:51:55.739Z,3724
2019-05-02T03:53:06.554Z,3724
2019-05-02T03:54:10.156Z,3724
2019-05-02T03:55:11.346Z,3724
2019-05-02T03:56:13.902Z,3724
2019-05-02T03:57:14.971Z,3724
2019-05-02T03:58:16.889Z,3724
2019-05-02T03:59:18.213Z,3724
2019-05-02T04:00:20.673Z,3724
2019-05-02T04:01:25.104Z,3724
2019-05-02T04:02:25.886Z,3724
2019-05-02T04:03:26.673Z,3724
2019-05-02T04:04:27.456Z,3724
2019-05-02T04:05:33.619Z,3724
2019-05-02T04:06:41.139Z,3724
2019-05-02T04:07:42.266Z,3724
2019-05-02T04:08:43.241Z,3724
2019-05-02T04:09:44.047Z,3724
2019-05-02T04:10:44.831Z,3724
2019-05-02T04:11:45.620Z,3724
2019-05-02T04:12:46.428Z,3724
2019-05-02T04:13:58.714Z,3724
2019-05-02T04:14:59.538Z,3724
2019-05-02T04:16:00.334Z,3704
2019-05-02T04:17:01.043Z,3704
2019-05-02T04:18:01.750Z,3704
2019-05-02T04:19:02.462Z,3704
2019-05-02T04:20:09.184Z,3704
2019-05-02T04:21:13.430Z,3704
2019-05-02T04:22:14.140Z,3704
2019-05-02T04:23:14.905Z,3704
2019-05-02T04:24:16.101Z,3704
2019-05-02T04:25:17.126Z,3704
2019-05-02T04:26:17.950Z,3704
2019-05-02T04:27:18.710Z,3704
2019-05-02T04:28:19.499Z,3704
2019-05-02T04:29:24.384Z,3704
2019-05-02T04:30:33.652Z,3704
2019-05-02T04:31:34.488Z,3704
2019-05-02T04:32:35.247Z,3704
2019-05-02T04:33:36.563Z,3704
2019-05-02T04:34:37.431Z,3704
2019-05-02T04:35:38.245Z,3704
2019-05-02T04:36:39.093Z,3704
2019-05-02T04:37:40.900Z,3704
2019-05-02T04:38:47.839Z,3704
2019-05-02T04:39:53.887Z,3704
2019-05-02T04:41:05.405Z,3704
2019-05-02T04:42:12.770Z,3704
2019-05-02T04:43:23.786Z,3704
2019-05-02T04:44:29.623Z,3704
2019-05-02T04:46:17.823Z,3704
2019-05-02T04:47:31.830Z,3704
2019-05-02T04:48:34.520Z,3704
2019-05-02T04:49:51.904Z,3704
2019-05-02T04:50:59.282Z,3704
2019-05-02T04:52:16.989Z,3704
2019-05-02T04:53:25.185Z,3684
2019-05-02T04:54:45.560Z,3684
2019-05-02T04:56:01.360Z,3684
2019-05-02T04:57:11.506Z,3684
2019-05-02T04:59:33.928Z,3684
2019-05-02T05:00:34.760Z,3684
2019-05-02T05:01:43.104Z,3684
2019-05-02T05:03:07.029Z,3684
2019-05-02T05:04:21.463Z,3684
2019-05-02T05:05:25.414Z,3684
2019-05-02T05:06:31.923Z,3684
2019-05-02T05:07:40.679Z,3684
2019-05-02T05:08:49.936Z,3684
2019-05-02T05:09:57.786Z,3684
2019-05-02T05:11:04.274Z,3684
2019-05-02T05:12:07.035Z,3684
2019-05-02T05:13:11.989Z,3684
2019-05-02T05:14:23.901Z,3684
2019-05-02T05:15:37.019Z,3684
2019-05-02T05:16:55.422Z,3684
2019-05-02T05:17:58.683Z,3684
2019-05-02T05:19:00.014Z,3684
2019-05-02T05:20:10.335Z,3684
2019-05-02T05:21:17.795Z,3684
2019-05-02T05:22:18.884Z,3684
2019-05-02T05:23:21.529Z,3684
2019-05-02T05:24:24.808Z,3684
2019-05-02T05:25:27.804Z,3684
2019-05-02T05:26:28.650Z,3684
2019-05-02T05:27:29.485Z,3684
2019-05-02T05:28:30.251Z,3664
2019-05-02T05:29:30.996Z,3664
2019-05-02T05:30:31.792Z,3664
2019-05-02T05:31:32.603Z,3664
2019-05-02T05:32:33.417Z,3664
2019-05-02T05:33:34.225Z,3664
2019-05-02T05:34:35.040Z,3664
2019-05-02T05:35:37.995Z,3664
2019-05-02T05:36:43.703Z,3664
2019-05-02T05:37:48.896Z,3664
2019-05-02T05:38:54.062Z,3664
2019-05-02T05:39:54.812Z,3664
2019-05-02T05:40:55.555Z,3664
2019-05-02T05:42:03.269Z,3664
2019-05-02T05:43:11.173Z,3664
2019-05-02T05:44:23.161Z,3664
2019-05-02T05:45:33.226Z,3664
2019-05-02T05:46:38.603Z,3664
2019-05-02T05:47:43.415Z,3664
2019-05-02T05:48:44.168Z,3664
2019-05-02T05:49:44.863Z,3664
2019-05-02T05:50:47.581Z,3664
2019-05-02T05:51:49.469Z,3664
2019-05-02T05:53:04.273Z,3664
2019-05-02T05:54:05.060Z,3664
2019-05-02T05:55:07.654Z,3664
2019-05-02T05:56:13.288Z,3664
2019-05-02T05:57:17.301Z,3664
2019-05-02T05:58:21.859Z,3664
2019-05-02T05:59:27.912Z,3664
2019-05-02T06:00:32.902Z,3664
2019-05-02T06:01:35.650Z,3664
2019-05-02T06:02:52.553Z,3644
2019-05-02T06:04:13.777Z,3644
2019-05-02T06:05:24.236Z,3644
2019-05-02T06:06:24.982Z,3644
2019-05-02T06:07:27.862Z,3644
2019-05-02T06:08:28.583Z,3644
2019-05-02T06:09:30.985Z,3644
2019-05-02T06:10:33.208Z,3644
2019-05-02T06:11:34.000Z,3644
2019-05-02T06:12:35.531Z,3644
2019-05-02T06:13:38.095Z,3644
2019-05-02T06:14:49.263Z,3644
2019-05-02T06:16:01.498Z,3644
2019-05-02T06:17:04.298Z,3644
2019-05-02T06:18:06.162Z,3644
2019-05-02T06:19:07.005Z,3644
2019-05-02T06:20:07.760Z,3644
2019-05-02T06:21:09.030Z,3644
2019-05-02T06:22:15.995Z,3644
2019-05-02T06:23:26.174Z,3644
2019-05-02T06:24:26.939Z,3644
2019-05-02T06:25:33.857Z,3644
2019-05-02T06:26:37.673Z,3644
2019-05-02T06:27:38.453Z,3644
2019-05-02T06:28:41.504Z,3644
2019-05-02T06:29:43.895Z,3644
2019-05-02T06:30:44.875Z,3644
2019-05-02T06:31:45.754Z,3644
2019-05-02T06:32:49.917Z,3644
2019-05-02T06:33:57.221Z,3644
2019-05-02T06:34:57.943Z,3644
2019-05-02T06:36:01.294Z,3644
2019-05-02T06:37:03.292Z,3644
2019-05-02T06:38:08.767Z,3624
2019-05-02T06:39:09.566Z,3624
2019-05-02T06:40:10.283Z,3624
2019-05-02T06:41:11.080Z,3624
2019-05-02T06:42:12.071Z,3624
2019-05-02T06:43:12.939Z,3624
2019-05-02T06:44:18.335Z,3624
2019-05-02T06:45:26.076Z,3624
2019-05-02T06:46:27.411Z,3624
2019-05-02T06:47:30.442Z,3624
2019-05-02T06:48:31.148Z,3624
2019-05-02T06:49:31.933Z,3624
2019-05-02T06:50:33.233Z,3624
2019-05-02T06:51:41.154Z,3624
2019-05-02T06:52:41.935Z,3624
2019-05-02T06:53:46.922Z,3624
2019-05-02T06:54:53.982Z,3624
2019-05-02T06:55:59.643Z,3624
2019-05-02T06:58:07.722Z,4500
2019-05-02T07:02:03.415Z,3824
2019-05-02T07:13:14.965Z,4164
2019-05-02T07:14:18.505Z,4164
2019-05-02T07:15:26.218Z,4184
2019-05-02T07:16:37.455Z,4184
2019-05-02T07:17:39.753Z,4184
2019-05-02T07:18:41.933Z,4204
2019-05-02T07:19:50.197Z,4204
2019-05-02T07:20:50.976Z,4204
2019-05-02T07:21:53.024Z,4204
2019-05-02T07:23:04.327Z,4224
2019-05-02T07:24:05.099Z,4224
2019-05-02T07:25:06.802Z,4224
2019-05-02T07:26:09.535Z,4224
2019-05-02T07:27:10.304Z,4224
2019-05-02T07:28:11.067Z,4224
2019-05-02T07:29:11.878Z,4224
2019-05-02T07:30:12.638Z,4224
2019-05-02T07:31:13.885Z,4224
2019-05-02T07:32:19.142Z,4224
2019-05-02T07:33:27.150Z,4244
2019-05-02T07:34:27.878Z,4244
2019-05-02T07:35:28.608Z,4244
2019-05-02T07:36:31.063Z,4244
2019-05-02T07:37:38.873Z,4244
2019-05-02T07:38:39.618Z,4244
2019-05-02T07:39:40.845Z,4244
2019-05-02T07:40:42.889Z,4244
2019-05-02T07:41:43.647Z,4244
2019-05-02T07:42:44.468Z,4224
2019-05-02T07:43:45.208Z,4224
2019-05-02T07:44:45.996Z,4224
2019-05-02T07:45:46.744Z,4224
2019-05-02T07:46:51.794Z,4224
2019-05-02T07:48:03.179Z,4224
2019-05-02T07:49:03.950Z,4224
2019-05-02T07:50:05.204Z,4224
2019-05-02T07:51:12.451Z,4224
2019-05-02T07:52:21.867Z,4224
2019-05-02T07:53:22.692Z,4224
2019-05-02T07:54:24.657Z,4224
2019-05-02T07:55:30.448Z,4224
2019-05-02T07:56:41.101Z,4224
2019-05-02T07:57:41.841Z,4224
2019-05-02T07:58:46.776Z,4224
2019-05-02T07:59:49.841Z,4224
2019-05-02T08:01:00.786Z,4224
2019-05-02T08:02:01.551Z,4224
2019-05-02T08:03:04.902Z,4224
2019-05-02T08:04:10.960Z,4224
2019-05-02T08:05:15.377Z,4224
2019-05-02T08:06:34.885Z,4224
2019-05-02T08:07:44.675Z,4224
2019-05-02T08:08:45.395Z,4224
2019-05-02T08:09:46.165Z,4224
2019-05-02T08:10:46.887Z,4224
2019-05-02T08:11:47.640Z,4224
2019-05-02T08:12:48.427Z,4224
2019-05-02T08:13:49.447Z,4224
2019-05-02T08:14:56.293Z,4224
2019-05-02T08:15:57.157Z,4224
2019-05-02T08:17:05.166Z,4224
2019-05-02T08:18:17.416Z,4224
2019-05-02T08:19:18.189Z,4224
2019-05-02T08:20:19.544Z,4224
2019-05-02T08:21:22.016Z,4224
2019-05-02T08:22:22.768Z,4224
2019-05-02T08:23:25.749Z,4224
2019-05-02T08:24:28.497Z,4224
2019-05-02T08:25:41.409Z,4224
2019-05-02T08:26:47.173Z,4224
2019-05-02T08:27:47.942Z,4224
2019-05-02T08:28:51.836Z,4224
2019-05-02T08:29:53.858Z,4224
2019-05-02T08:30:54.573Z,4224
2019-05-02T08:31:55.301Z,4224
2019-05-02T08:32:56.028Z,4224
2019-05-02T08:33:56.834Z,4224
2019-05-02T08:34:57.580Z,4224
2019-05-02T08:35:58.347Z,4224
2019-05-02T08:37:03.059Z,4224
2019-05-02T08:38:05.555Z,4224
2019-05-02T08:39:06.351Z,4224
2019-05-02T08:40:10.434Z,4224
2019-05-02T08:41:12.699Z,4224
2019-05-02T08:42:13.493Z,4224
2019-05-02T08:43:14.286Z,4224
2019-05-02T08:44:16.681Z,4224
2019-05-02T08:45:18.803Z,4204
2019-05-02T08:46:19.552Z,4204
2019-05-02T08:47:23.733Z,4224
2019-05-02T08:48:31.017Z,4204
2019-05-02T08:49:31.851Z,4204
2019-05-02T08:50:33.435Z,4204
2019-05-02T08:51:34.384Z,4204
2019-05-02T08:52:36.713Z,4204
2019-05-02T08:53:44.556Z,4204
2019-05-02T08:54:45.346Z,4204
2019-05-02T08:55:46.706Z,4204
2019-05-02T08:56:47.502Z,4204
2019-05-02T08:57:48.323Z,4204
2019-05-02T08:58:49.739Z,4204
2019-05-02T08:59:55.318Z,4204
2019-05-02T09:01:02.040Z,4204
2019-05-02T09:02:02.740Z,4204
2019-05-02T09:03:04.726Z,4204
2019-05-02T09:04:05.595Z,4204
2019-05-02T09:05:06.380Z,4204
2019-05-02T09:06:07.173Z,4204
2019-05-02T09:07:07.980Z,4204
2019-05-02T09:08:09.361Z,4204
2019-05-02T09:09:17.017Z,4204
2019-05-02T09:10:17.866Z,4204
2019-05-02T09:11:18.681Z,4204
2019-05-02T09:12:20.170Z,4204
2019-05-02T09:13:28.945Z,4204
2019-05-02T09:14:32.130Z,4204
2019-05-02T09:15:35.188Z,4204
2019-05-02T09:16:52.152Z,4204
2019-05-02T09:17:56.380Z,4204
2019-05-02T09:18:57.320Z,4204
2019-05-02T09:20:02.011Z,4204
2019-05-02T09:21:19.153Z,4204
2019-05-02T09:22:21.804Z,4204
2019-05-02T09:23:22.943Z,4204
2019-05-02T09:24:36.016Z,4204
2019-05-02T09:25:36.785Z,4204
2019-05-02T09:26:38.580Z,4204
2019-05-02T09:27:39.648Z,4204
2019-05-02T09:28:42.619Z,4204
2019-05-02T09:29:45.864Z,4204
2019-05-02T09:30:46.954Z,4204
2019-05-02T09:31:48.168Z,4204
2019-05-02T09:32:49.004Z,4204
2019-05-02T09:33:51.928Z,4204
2019-05-02T09:34:56.547Z,4204
2019-05-02T09:36:06.649Z,4204
2019-05-02T09:37:07.442Z,4204
2019-05-02T09:38:08.285Z,4204
2019-05-02T09:39:09.082Z,4204
2019-05-02T09:40:12.354Z,4204
2019-05-02T09:41:19.383Z,4204
2019-05-02T09:42:22.830Z,4204
2019-05-02T09:43:23.656Z,4204
2019-05-02T09:44:24.444Z,4204
2019-05-02T09:45:27.668Z,4204
2019-05-02T09:46:37.898Z,4204
2019-05-02T09:47:53.737Z,4204
2019-05-02T09:49:11.929Z,4204
2019-05-02T09:50:20.441Z,4204
2019-05-02T09:51:32.417Z,4204
2019-05-02T09:52:39.151Z,4204
2019-05-02T09:53:44.864Z,4204
2019-05-02T09:54:46.060Z,4204
2019-05-02T09:55:49.697Z,4204
2019-05-02T09:56:58.634Z,4204
2019-05-02T09:57:59.422Z,4204
2019-05-02T09:59:03.031Z,4204
2019-05-02T10:00:32.055Z,4204
2019-05-02T10:01:37.034Z,4204
2019-05-02T10:02:37.747Z,4204
2019-05-02T10:03:38.486Z,4204
2019-05-02T10:04:42.032Z,4204
2019-05-02T10:05:44.919Z,4204
2019-05-02T10:06:45.710Z,4204
2019-05-02T10:07:48.537Z,4204
2019-05-02T10:08:49.427Z,4204
2019-05-02T10:09:52.460Z,4204
2019-05-02T10:10:53.663Z,4204
2019-05-02T10:11:54.409Z,4204
2019-05-02T10:12:55.162Z,4204
2019-05-02T10:13:56.020Z,4204
2019-05-02T10:14:56.801Z,4204
2019-05-02T10:15:57.671Z,4204
2019-05-02T10:17:02.915Z,4204
2019-05-02T10:18:11.169Z,4204
2019-05-02T10:19:15.367Z,4204
2019-05-02T10:20:16.119Z,4204
2019-05-02T10:21:17.322Z,4204
2019-05-02T10:22:18.169Z,4204
2019-05-02T10:23:19.730Z,4204
2019-05-02T10:24:24.188Z,4204
2019-05-02T10:25:24.919Z,4204
2019-05-02T10:26:25.715Z,4204
2019-05-02T10:27:26.814Z,4204
2019-05-02T10:28:27.546Z,4204
2019-05-02T10:29:29.761Z,4204
2019-05-02T10:30:35.790Z,4204
2019-05-02T10:31:37.748Z,4204
2019-05-02T10:32:39.015Z,4204
2019-05-02T10:33:39.764Z,4204
2019-05-02T10:34:42.693Z,4204
2019-05-02T10:35:52.773Z,4204
2019-05-02T10:36:58.490Z,4204
2019-05-02T10:38:03.717Z,4204
2019-05-02T10:39:04.536Z,4204
2019-05-02T10:40:07.712Z,4204
2019-05-02T10:41:17.689Z,4204
2019-05-02T10:42:18.461Z,4204
2019-05-02T10:43:19.172Z,4204
2019-05-02T10:44:21.953Z,4204
2019-05-02T10:45:27.618Z,4204
2019-05-02T10:46:33.257Z,4204
2019-05-02T10:47:38.592Z,4204
2019-05-02T10:48:39.335Z,4204
2019-05-02T10:49:40.056Z,4204
2019-05-02T10:50:43.269Z,4204
2019-05-02T10:51:49.138Z,4204
2019-05-02T10:52:54.457Z,4204
2019-05-02T10:53:56.496Z,4204
2019-05-02T10:54:57.458Z,4204
2019-05-02T10:55:58.223Z,4204
2019-05-02T10:56:59.253Z,4204
2019-05-02T10:58:01.864Z,4204
2019-05-02T10:59:02.818Z,4204
2019-05-02T11:00:03.651Z,4204
2019-05-02T11:01:04.413Z,4204
2019-05-02T11:02:05.128Z,4204
2019-05-02T11:03:05.897Z,4204
2019-05-02T11:04:06.674Z,4204
2019-05-02T11:05:07.429Z,4204
2019-05-02T11:06:08.174Z,4204
2019-05-02T11:07:08.990Z,4204
2019-05-02T11:08:11.796Z,4204
2019-05-02T11:09:16.663Z,4204
2019-05-02T11:10:26.869Z,4204
2019-05-02T11:11:27.659Z,4204
2019-05-02T11:12:40.248Z,4204
2019-05-02T11:13:47.834Z,4204
2019-05-02T11:14:48.577Z,4204
2019-05-02T11:15:49.392Z,4204
2019-05-02T11:16:51.977Z,4204
2019-05-02T11:17:53.309Z,4204
2019-05-02T11:18:54.160Z,4204
2019-05-02T11:19:54.989Z,4204
2019-05-02T11:21:03.492Z,4124
2019-05-02T11:22:08.940Z,4124
2019-05-02T11:23:09.831Z,4124
2019-05-02T11:24:13.624Z,4124
2019-05-02T11:25:15.152Z,4124
2019-05-02T11:27:25.753Z,4104
2019-05-02T11:28:26.503Z,4104
2019-05-02T11:29:27.379Z,4104
2019-05-02T11:30:28.139Z,4104
2019-05-02T11:31:28.895Z,4104
2019-05-02T11:32:29.634Z,4104
2019-05-02T11:33:32.076Z,4104
2019-05-02T11:34:33.342Z,4104
2019-05-02T11:35:34.102Z,4104
2019-05-02T11:36:34.843Z,4104
2019-05-02T11:37:36.419Z,4104
2019-05-02T11:38:37.944Z,4104
2019-05-02T11:40:05.764Z,4104
2019-05-02T11:41:09.080Z,4084
2019-05-02T11:42:09.787Z,4084
2019-05-02T11:43:11.550Z,4084
2019-05-02T11:44:12.396Z,4084
2019-05-02T11:45:13.204Z,4084
2019-05-02T11:46:13.951Z,4084
2019-05-02T11:47:17.171Z,4084
2019-05-02T11:48:27.193Z,4084
2019-05-02T11:49:27.962Z,4084
2019-05-02T11:50:31.803Z,4084
2019-05-02T11:51:36.178Z,4084
2019-05-02T11:52:37.493Z,4084
2019-05-02T11:53:38.310Z,4084
2019-05-02T11:54:43.679Z,4084
2019-05-02T11:55:49.458Z,4084
2019-05-02T11:56:51.181Z,4084
2019-05-02T11:57:54.529Z,4084
2019-05-02T11:58:55.711Z,4084
2019-05-02T11:59:59.318Z,4084
2019-05-02T12:01:09.318Z,4064
2019-05-02T12:02:14.898Z,4064
2019-05-02T12:03:19.661Z,4064
2019-05-02T12:04:22.567Z,4064
2019-05-02T12:05:26.505Z,4064
2019-05-02T12:06:36.384Z,4064
2019-05-02T12:07:37.215Z,4064
2019-05-02T12:08:39.308Z,4064
2019-05-02T12:09:51.885Z,4064
2019-05-02T12:10:57.953Z,4064
2019-05-02T12:12:04.330Z,4064
2019-05-02T12:13:06.513Z,4064
2019-05-02T12:14:16.774Z,4064
2019-05-02T12:15:17.523Z,4064
2019-05-02T12:16:18.291Z,4064
2019-05-02T12:17:19.104Z,4064
2019-05-02T12:18:21.106Z,4064
2019-05-02T12:19:24.094Z,4064
2019-05-02T12:20:28.532Z,4064
2019-05-02T12:21:39.207Z,4064
2019-05-02T12:22:41.892Z,4064
2019-05-02T12:23:42.809Z,4064
2019-05-02T12:24:45.257Z,4064
2019-05-02T12:25:46.164Z,4064
2019-05-02T12:26:46.960Z,4064
2019-05-02T12:27:47.728Z,4064
2019-05-02T12:28:48.547Z,4064
2019-05-02T12:29:50.058Z,4064
2019-05-02T12:30:59.853Z,4064
2019-05-02T12:32:02.246Z,4064
2019-05-02T12:33:03.364Z,4064
2019-05-02T12:34:04.125Z,4064
2019-05-02T12:35:04.944Z,4064
2019-05-02T12:36:05.766Z,4064
2019-05-02T12:37:06.572Z,4044
2019-05-02T12:38:07.321Z,4044
2019-05-02T12:39:08.135Z,4044
2019-05-02T12:40:08.885Z,4044
2019-05-02T12:41:20.161Z,4044
2019-05-02T12:42:26.105Z,4044
2019-05-02T12:43:27.893Z,4044
2019-05-02T12:44:28.730Z,4044
2019-05-02T12:45:29.499Z,4044
2019-05-02T12:46:31.696Z,4044
2019-05-02T12:47:32.677Z,4044
2019-05-02T12:48:33.455Z,4044
2019-05-02T12:49:34.504Z,4044
2019-05-02T12:50:35.471Z,4044
2019-05-02T12:51:36.237Z,4044
2019-05-02T12:52:37.066Z,4044
2019-05-02T12:53:37.802Z,4044
2019-05-02T12:54:38.563Z,4044
2019-05-02T12:55:39.333Z,4044
2019-05-02T12:56:41.720Z,4044
2019-05-02T12:57:42.943Z,4044
2019-05-02T12:58:43.762Z,4044
2019-05-02T12:59:44.658Z,4044
2019-05-02T13:00:45.451Z,4044
2019-05-02T13:01:46.200Z,4044
2019-05-02T13:02:47.019Z,4044
2019-05-02T13:03:47.769Z,4044
2019-05-02T13:04:48.534Z,4044
2019-05-02T13:05:49.319Z,4044
2019-05-02T13:06:50.205Z,4044
2019-05-02T13:07:55.061Z,4044
2019-05-02T13:08:56.240Z,4044
2019-05-02T13:09:57.039Z,4044
2019-05-02T13:11:02.001Z,4044
2019-05-02T13:12:07.655Z,4044
2019-05-02T13:13:08.492Z,4044
2019-05-02T13:14:16.610Z,4044
2019-05-02T13:15:22.008Z,4044
2019-05-02T13:16:22.993Z,4044
2019-05-02T13:17:23.819Z,4044
2019-05-02T13:18:26.866Z,4044
2019-05-02T13:19:41.089Z,4044
2019-05-02T13:21:02.201Z,4044
2019-05-02T13:22:03.086Z,4044
2019-05-02T13:23:03.847Z,4044
2019-05-02T13:24:07.167Z,4044
2019-05-02T13:25:16.891Z,4044
2019-05-02T13:26:20.750Z,4044
2019-05-02T13:27:31.534Z,4044
2019-05-02T13:28:48.860Z,4044
2019-05-02T13:29:49.610Z,4044
2019-05-02T13:30:51.621Z,4044
2019-05-02T13:31:52.583Z,4044
2019-05-02T13:32:57.575Z,4044
2019-05-02T13:33:58.693Z,4044
2019-05-02T13:34:59.551Z,4044
2019-05-02T13:36:02.625Z,4044
2019-05-02T13:37:03.453Z,4044
2019-05-02T13:38:04.474Z,4044
2019-05-02T13:39:05.202Z,4044
2019-05-02T13:40:05.931Z,4044
2019-05-02T13:41:06.765Z,4044
2019-05-02T13:42:07.921Z,4044
2019-05-02T13:43:08.808Z,4044
2019-05-02T13:44:09.549Z,4044
2019-05-02T13:45:10.277Z,4044
2019-05-02T13:46:13.306Z,4044
2019-05-02T13:47:14.124Z,4044
2019-05-02T13:48:14.954Z,4044
2019-05-02T13:49:15.834Z,4044
2019-05-02T13:50:16.589Z,4044
2019-05-02T13:51:17.516Z,4044
2019-05-02T13:52:18.324Z,4044
2019-05-02T13:53:19.177Z,4024
2019-05-02T13:54:21.672Z,4024
2019-05-02T13:55:23.632Z,4024
2019-05-02T13:56:24.520Z,4024
2019-05-02T13:57:25.333Z,4024
2019-05-02T13:58:28.769Z,4044
2019-05-02T13:59:33.835Z,4024
2019-05-02T14:00:35.681Z,4024
2019-05-02T14:01:36.481Z,4024
2019-05-02T14:02:37.297Z,4024
2019-05-02T14:03:38.120Z,4024
2019-05-02T14:04:38.889Z,4024
2019-05-02T14:05:41.910Z,4024
2019-05-02T14:06:54.344Z,4024
2019-05-02T14:07:57.053Z,4024
2019-05-02T14:08:58.045Z,4024
2019-05-02T14:10:00.284Z,4024
2019-05-02T14:11:03.287Z,4024
2019-05-02T14:12:04.081Z,4024
2019-05-02T14:13:04.837Z,4024
2019-05-02T14:14:05.596Z,4024
2019-05-02T14:15:06.374Z,4024
2019-05-02T14:16:07.112Z,4024
2019-05-02T14:17:07.829Z,4024
2019-05-02T14:18:08.656Z,4024
2019-05-02T14:19:09.461Z,4024
2019-05-02T14:20:11.477Z,4024
2019-05-02T14:21:14.665Z,4024
2019-05-02T14:22:15.466Z,4024
2019-05-02T14:23:16.268Z,4024
2019-05-02T14:24:17.095Z,4024